Date,TemperatureHighF,TemperatureAvgF,TemperatureLowF,DewpointHighF,DewpointAvgF,DewpointLowF,HumidityHigh,HumidityAvg,HumidityLow,PressureMaxIn,PressureMinIn,WindSpeedMaxMPH,WindSpeedAvgMPH,GustSpeedMaxMPH,PrecipitationSumIn
2013-1-1,77.0,74.1,71.4,69.7,65.8,59.6,88,76,64,30.15,30.02,15,9,18,0.00
2013-1-2,79.2,74.2,70.0,73.3,70.3,67.2,93,88,77,30.08,29.99,9,4,12,0.00
2013-1-3,79.9,75.0,70.9,74.1,71.8,69.1,95,90,80,30.11,30.02,10,4,13,0.00
2013-1-4,80.8,75.6,69.8,75.8,72.4,68.9,97,90,71,30.20,30.09,12,5,14,0.02
2013-1-5,78.4,74.5,69.8,73.7,72.0,69.2,98,92,80,30.20,30.10,17,9,19,0.00
2013-1-6,79.9,77.1,74.5,73.6,72.8,71.7,95,87,79,30.15,30.03,13,8,17,0.00
2013-1-7,79.9,76.8,74.7,72.6,71.1,68.4,92,83,70,30.12,30.03,12,7,17,0.00
2013-1-8,79.7,77.1,73.2,73.9,72.5,70.4,96,86,75,30.15,30.03,15,10,21,0.00
2013-1-9,80.4,78.5,77.0,73.4,72.6,71.6,88,82,76,30.21,30.09,18,14,25,0.00
2013-1-10,79.2,77.6,76.3,72.6,70.5,68.1,84,79,71,30.24,30.11,20,15,28,0.00
2013-1-11,79.7,77.1,75.4,71.5,67.9,60.6,85,74,52,30.20,30.10,19,14,25,0.00
2013-1-12,78.8,76.6,74.7,71.5,69.7,67.9,85,79,72,30.13,30.04,18,11,23,0.00
2013-1-13,79.2,76.5,74.8,71.1,67.2,62.3,85,73,63,30.08,30.01,18,12,27,0.00
2013-1-14,78.8,76.0,74.7,68.0,65.5,61.4,75,70,61,30.12,30.07,15,10,22,0.00
2013-1-15,79.5,76.3,74.1,70.1,67.8,66.0,81,75,64,30.10,30.01,12,9,21,0.00
2013-1-16,79.9,76.3,71.8,71.7,69.0,66.4,88,78,69,30.08,29.99,10,6,15,0.00
2013-1-17,81.1,74.3,67.8,72.7,68.2,59.4,88,81,70,30.11,29.99,19,8,33,0.05
2013-1-18,67.8,64.1,60.6,59.6,55.9,52.6,80,75,68,30.21,30.11,15,8,24,0.00
2013-1-19,73.0,68.8,61.5,64.6,60.7,55.6,83,75,63,30.19,30.08,7,3,12,0.00
2013-1-20,77.0,72.3,68.7,69.8,67.2,64.4,97,84,69,30.13,30.00,6,3,11,0.00
2013-1-21,79.9,72.8,69.6,71.8,67.6,64.1,95,84,70,30.08,29.99,12,5,17,0.00
2013-1-22,72.3,69.5,66.9,64.3,60.9,58.6,83,74,66,30.18,30.02,12,8,24,0.00
2013-1-23,73.0,69.2,66.4,61.1,59.0,56.1,81,70,58,30.25,30.14,14,9,24,0.00
2013-1-24,73.2,68.7,65.1,62.0,59.1,56.4,84,72,56,30.27,30.16,11,6,22,0.00
2013-1-25,74.7,69.8,66.4,63.2,59.4,56.4,83,70,54,30.26,30.15,14,7,21,0.00
2013-1-26,75.2,70.2,66.6,66.4,62.9,59.4,87,78,63,30.21,30.13,12,6,21,0.00
2013-1-27,76.5,72.8,68.7,69.2,67.5,64.6,89,83,73,30.22,30.14,18,10,27,0.00
2013-1-28,77.5,75.3,73.4,69.7,67.7,65.6,83,77,71,30.26,30.17,17,12,24,0.00
2013-1-29,78.8,76.2,74.5,71.0,69.7,67.7,84,80,73,30.19,30.08,14,10,22,0.00
2013-1-30,78.8,76.2,74.3,72.3,69.0,65.5,90,79,70,30.08,29.95,15,9,24,0.00
2013-1-31,76.8,71.2,66.2,74.0,66.5,59.2,92,85,78,30.15,29.95,16,8,27,0.00
2013-2-1,72.1,66.5,61.0,61.8,55.0,49.1,80,67,54,30.23,30.12,14,10,24,0.00
2013-2-2,73.0,68.2,63.7,61.4,58.0,53.8,82,70,58,30.21,30.09,13,8,21,0.00
2013-2-3,70.2,67.8,64.9,61.7,57.0,47.2,86,69,52,30.16,30.05,14,8,25,0.00
2013-2-4,71.2,68.7,62.8,59.5,55.2,47.6,78,63,46,30.11,30.00,12,7,16,0.00
2013-2-5,75.6,70.4,65.5,67.1,63.9,59.3,90,80,70,30.05,29.98,9,4,14,0.00
2013-2-6,78.6,73.2,68.0,71.5,67.8,65.3,96,83,66,30.07,29.99,11,5,17,0.00
2013-2-7,79.0,75.2,72.1,70.3,67.5,65.1,91,77,63,30.06,29.93,11,6,19,0.00
2013-2-8,81.9,76.0,71.6,74.0,71.6,68.9,93,86,71,30.04,29.93,12,6,17,0.00
2013-2-9,78.1,73.1,68.4,71.5,67.5,63.4,92,83,75,30.12,30.01,16,9,23,0.00
2013-2-10,77.0,75.0,73.0,68.5,66.6,64.5,83,75,66,30.19,30.09,17,13,27,0.00
2013-2-11,78.8,75.8,73.0,70.8,69.2,66.4,88,80,73,30.17,30.08,14,11,22,0.00
2013-2-12,81.1,77.0,74.8,73.7,71.3,69.4,91,83,72,30.09,29.96,10,7,17,0.00
2013-2-13,82.0,77.8,75.2,74.6,73.4,72.2,94,86,75,30.01,29.92,9,5,14,0.00
2013-2-14,82.4,77.3,66.7,75.2,73.1,65.3,96,87,78,29.99,29.89,20,7,35,0.33
2013-2-15,75.0,69.9,66.9,71.1,67.9,65.8,97,93,85,30.00,29.91,10,6,21,0.71
2013-2-16,71.1,68.4,64.6,69.7,61.5,50.7,98,79,60,30.08,29.87,20,12,32,0.21
2013-2-17,64.9,57.6,53.6,52.6,42.0,35.3,69,56,44,30.28,30.07,17,10,31,0.00
2013-2-18,69.6,62.6,54.1,58.7,50.4,35.9,72,64,49,30.27,30.15,18,9,26,0.00
2013-2-19,75.2,70.0,66.7,69.3,65.0,57.0,96,84,65,30.16,30.07,10,6,17,0.66
2013-2-20,75.4,70.7,66.7,69.5,67.3,65.3,97,89,75,30.10,29.98,12,6,17,0.02
2013-2-21,78.1,74.2,69.8,71.7,69.2,67.0,96,85,70,30.06,29.97,10,7,18,0.02
2013-2-22,79.0,76.3,73.9,73.2,72.0,71.1,92,86,79,30.07,29.97,12,8,18,0.00
2013-2-23,81.7,77.9,75.7,74.5,73.1,72.0,93,85,76,30.01,29.92,11,6,18,0.00
2013-2-24,82.2,78.2,75.2,77.2,74.1,72.2,95,87,76,29.99,29.89,7,3,11,0.00
2013-2-25,82.0,78.7,76.5,75.6,74.2,72.3,93,86,73,29.90,29.78,13,7,18,0.00
2013-2-26,82.6,79.3,77.2,75.8,74.1,71.6,90,84,77,29.91,29.78,12,7,22,0.00
2013-2-27,81.7,75.3,71.6,75.8,71.6,68.2,93,88,77,29.96,29.86,13,6,17,0.02
2013-2-28,72.5,70.0,64.9,68.7,59.0,46.3,91,69,42,29.99,29.90,12,6,21,0.00
2013-3-1,71.4,66.9,61.9,62.2,59.1,55.7,89,76,64,29.98,29.89,11,5,18,0.02
2013-3-2,66.0,62.7,59.5,56.9,51.9,47.2,83,68,60,30.04,29.94,15,9,28,0.00
2013-3-3,64.8,60.2,54.7,56.5,51.3,45.2,91,73,54,30.15,29.91,17,8,33,0.17
2013-3-4,62.4,59.2,55.0,52.2,48.8,45.5,84,69,56,30.22,30.10,12,6,20,0.00
2013-3-5,73.0,65.9,56.8,61.7,56.7,52.1,86,73,55,30.15,30.07,9,4,15,0.00
2013-3-6,75.4,67.3,62.1,65.0,59.4,50.2,91,76,62,30.12,30.03,22,9,33,0.00
2013-3-7,63.0,60.1,57.0,53.2,47.7,42.7,79,64,52,30.20,30.07,13,8,23,0.00
2013-3-8,71.8,65.1,58.6,61.0,55.8,50.9,87,73,54,30.18,30.10,9,4,17,0.00
2013-3-9,73.9,68.5,62.1,62.1,59.0,47.3,90,73,40,30.16,30.08,14,8,21,0.00
2013-3-10,73.6,70.6,67.3,62.1,58.8,55.8,80,66,57,30.13,30.01,18,12,27,0.00
2013-3-11,77.2,73.5,70.9,66.4,63.1,60.1,79,70,62,30.06,29.92,13,9,20,0.00
2013-3-12,79.3,75.0,68.2,71.1,68.7,65.8,93,81,70,30.01,29.88,12,8,20,0.00
2013-3-13,70.7,67.7,63.9,66.3,57.3,50.1,93,70,49,30.12,29.99,14,10,26,0.00
2013-3-14,69.1,65.1,62.1,58.9,48.9,41.5,75,57,40,30.20,30.07,15,10,29,0.00
2013-3-15,70.9,64.6,60.4,58.8,48.5,42.8,84,57,38,30.23,30.13,12,6,67,0.00
2013-3-16,72.9,68.1,63.1,60.3,57.2,52.9,85,69,54,30.17,30.07,11,7,16,0.00
2013-3-17,76.8,72.9,70.2,67.1,62.9,59.5,83,71,63,30.10,29.99,12,8,18,0.00
2013-3-18,78.3,74.7,72.3,71.5,69.3,67.1,90,83,77,30.04,29.93,13,6,22,0.00
2013-3-19,74.5,72.1,68.2,72.8,68.3,65.8,98,88,77,30.01,29.90,13,6,22,0.17
2013-3-20,77.7,71.9,66.7,69.5,67.7,65.0,98,87,73,29.98,29.84,14,5,21,0.02
2013-3-21,74.7,70.8,68.7,67.8,63.4,58.1,91,78,65,29.94,29.83,9,5,15,0.00
2013-3-22,79.7,75.0,68.9,74.2,69.3,60.5,93,83,74,29.97,29.87,9,5,16,0.00
2013-3-23,81.5,78.0,75.2,75.1,73.3,69.9,95,86,69,29.96,29.81,9,6,17,0.00
2013-3-24,84.6,79.3,76.1,77.1,74.8,73.6,95,86,71,29.87,29.72,18,8,27,0.00
2013-3-25,78.4,73.3,67.1,75.2,67.6,55.8,95,83,61,30.01,29.75,18,9,29,0.31
2013-3-26,69.4,63.9,58.8,55.9,47.1,38.9,71,55,34,30.21,29.98,21,14,33,0.00
2013-3-27,62.8,58.9,54.1,51.4,44.0,36.0,73,59,39,30.27,30.15,16,9,24,0.00
2013-3-28,70.3,64.4,59.4,57.8,48.9,42.1,79,58,40,30.24,30.15,11,6,21,0.00
2013-3-29,72.7,67.8,62.6,59.5,55.2,51.3,82,65,49,30.26,30.17,16,8,23,0.00
2013-3-30,73.8,70.2,66.2,61.6,59.3,55.8,83,69,54,30.22,30.11,16,9,22,0.00
2013-3-31,77.5,73.7,69.8,71.0,64.8,60.5,91,74,63,30.15,30.01,12,8,18,0.00
2013-4-1,81.9,76.3,72.5,74.3,71.6,69.4,93,86,67,30.06,29.96,11,6,15,0.00
2013-4-2,81.5,75.4,70.0,70.8,67.8,62.6,96,79,54,30.08,29.98,7,3,12,0.00
2013-4-3,80.1,76.6,72.5,73.4,71.2,67.4,90,84,78,30.05,29.94,14,9,23,0.00
2013-4-4,81.3,78.1,75.7,75.0,73.7,72.7,92,86,78,30.02,29.90,12,7,18,0.00
2013-4-5,77.7,71.2,67.1,75.3,67.8,62.0,96,89,81,29.99,29.81,17,8,25,2.36
2013-4-6,71.4,68.1,64.9,65.6,60.2,56.5,89,76,66,30.07,29.94,16,8,24,0.00
2013-4-7,78.1,75.2,68.9,68.6,67.1,65.6,91,76,70,30.08,29.97,16,12,24,0.00
2013-4-8,79.5,76.5,74.5,70.9,69.0,67.1,84,78,70,30.08,29.99,15,12,23,0.00
2013-4-9,79.9,77.0,74.1,72.7,70.6,68.1,90,81,75,30.09,30.01,18,12,26,0.00
2013-4-10,81.3,78.3,73.0,75.0,73.7,70.3,94,86,80,30.06,29.93,17,12,27,0.52
2013-4-11,81.5,79.2,77.5,75.7,74.6,73.4,89,86,79,29.97,29.84,15,12,24,0.00
2013-4-12,83.3,80.1,77.7,76.9,75.7,73.6,94,86,79,29.95,29.85,14,7,22,0.00
2013-4-13,87.3,81.3,77.0,77.3,74.9,71.7,93,81,61,29.96,29.87,10,6,17,0.02
2013-4-14,83.3,80.7,78.6,76.1,74.7,73.6,89,82,75,29.94,29.85,12,9,20,0.00
2013-4-15,86.2,82.7,79.2,78.6,76.0,70.7,90,80,62,30.02,29.90,10,5,16,0.00
2013-4-16,84.4,81.8,80.1,77.1,75.4,72.1,88,81,68,30.07,29.98,13,9,18,0.00
2013-4-17,83.5,81.0,79.3,74.5,73.1,71.4,83,77,69,30.06,29.97,15,11,24,0.00
2013-4-18,83.3,80.6,77.4,75.0,73.6,71.8,88,79,69,30.01,29.92,17,12,26,0.00
2013-4-19,91.2,81.1,67.1,76.4,73.9,65.9,96,79,55,30.25,29.94,17,10,24,0.00
2013-4-20,86.5,81.7,78.6,78.2,75.2,69.5,90,81,64,30.09,29.98,10,4,16,0.09
2013-4-21,84.2,79.8,74.5,75.3,72.6,69.4,91,79,62,30.11,30.00,13,6,21,0.80
2013-4-22,82.6,77.6,71.8,74.7,72.2,68.2,95,84,70,30.07,29.95,10,4,18,0.38
2013-4-23,84.0,78.9,75.0,73.4,70.2,65.2,90,75,54,30.07,29.97,17,9,26,0.00
2013-4-24,81.9,78.6,75.7,70.1,67.3,63.9,74,68,61,30.13,30.03,19,12,26,0.00
2013-4-25,82.2,78.5,75.7,67.4,64.3,54.6,73,62,40,30.20,30.08,16,9,21,0.02
2013-4-26,80.8,77.4,73.9,67.2,64.6,57.9,73,65,46,30.23,30.12,17,10,24,0.00
2013-4-27,80.4,77.3,74.3,69.8,65.8,62.5,77,68,57,30.20,30.07,15,11,22,0.00
2013-4-28,81.1,78.2,73.6,72.0,69.7,67.2,88,75,65,30.09,29.98,19,13,27,0.00
2013-4-29,82.0,78.2,73.8,74.1,72.0,66.9,92,81,74,30.03,29.88,16,10,24,0.05
2013-4-30,83.7,80.2,75.2,75.0,73.2,70.8,91,79,68,29.95,29.86,12,7,20,0.28
2013-5-1,81.0,80.3,79.3,74.7,73.9,73.0,85,81,79,29.94,29.84,12,7,18,0.00
2013-5-2,80.6,74.8,68.5,74.7,71.3,65.6,98,89,80,30.01,29.90,22,7,33,3.78
2013-5-3,83.1,77.3,70.3,74.1,71.2,66.5,90,81,66,29.92,29.75,13,6,27,0.17
2013-5-4,79.9,76.8,74.5,71.0,68.8,61.6,85,77,63,29.87,29.76,19,13,26,0.00
2013-5-5,75.4,73.4,71.6,65.8,61.3,58.1,76,66,61,29.97,29.82,17,12,24,0.00
2013-5-6,79.0,74.6,70.0,65.9,62.0,58.2,74,65,51,30.05,29.95,9,6,14,0.00
2013-5-7,81.3,76.3,72.7,68.2,66.2,64.5,82,71,58,30.09,29.98,10,4,15,0.00
2013-5-8,80.4,76.1,71.4,70.4,67.7,65.3,83,75,66,30.14,30.06,6,3,11,0.00
2013-5-9,82.9,78.7,74.5,75.6,71.0,66.9,86,77,67,30.14,30.05,10,5,16,0.00
2013-5-10,84.6,81.3,78.6,77.3,75.0,72.9,88,81,73,30.12,30.01,8,6,14,0.00
2013-5-11,84.6,81.3,79.2,76.2,75.1,74.0,89,82,73,30.08,30.00,10,6,17,0.00
2013-5-12,85.3,81.4,79.0,75.2,73.3,71.2,87,77,65,30.07,29.98,10,5,20,0.00
2013-5-13,84.7,80.2,77.5,77.3,73.9,70.1,89,81,73,30.11,30.00,10,4,16,0.43
2013-5-14,81.5,78.7,77.0,72.7,69.1,63.6,86,73,62,30.14,30.04,15,10,25,0.00
2013-5-15,80.1,77.7,74.7,69.2,65.4,61.9,75,66,59,30.15,30.07,15,10,23,0.00
2013-5-16,81.0,78.2,75.9,68.9,67.6,66.1,75,70,63,30.09,30.00,14,9,24,0.00
2013-5-17,83.3,79.7,75.4,76.1,72.7,67.7,88,79,72,30.08,30.01,9,5,14,0.00
2013-5-18,83.8,81.2,79.3,76.1,74.6,73.4,89,80,73,30.10,30.02,9,6,17,0.00
2013-5-19,84.0,81.0,79.2,74.6,73.0,71.2,82,76,69,30.08,29.98,11,8,18,0.00
2013-5-20,83.8,80.4,75.6,76.9,73.7,69.2,87,80,74,30.05,29.97,16,8,22,0.00
2013-5-21,83.8,81.0,78.4,76.3,74.5,72.5,87,81,72,30.01,29.89,12,7,20,0.00
2013-5-22,87.8,82.8,79.5,77.4,75.5,73.9,87,79,70,29.97,29.89,10,5,15,0.00
2013-5-23,86.9,82.3,79.5,76.6,74.6,73.0,85,77,68,30.03,29.93,11,5,16,0.00
2013-5-24,86.2,81.4,76.8,76.7,73.3,70.0,89,77,62,30.07,29.97,9,4,14,0.00
2013-5-25,86.5,82.3,77.7,75.4,72.8,67.0,86,73,56,30.12,30.02,16,7,25,0.00
2013-5-26,84.0,81.1,78.6,70.4,68.1,63.8,75,65,52,30.15,30.07,16,11,27,0.00
2013-5-27,81.5,78.6,73.9,75.7,72.8,68.1,95,83,68,30.11,30.00,17,11,30,0.21
2013-5-28,81.0,78.5,73.9,76.7,73.9,71.4,96,86,79,30.07,29.99,16,11,26,0.64
2013-5-29,79.7,76.4,72.5,75.3,73.5,71.2,98,91,79,30.04,29.96,14,7,25,2.24
2013-5-30,82.8,78.8,74.7,77.4,75.1,72.9,95,88,78,30.02,29.95,13,6,20,0.38
2013-5-31,84.7,80.4,77.0,77.6,75.1,72.9,91,84,74,30.03,29.97,11,6,16,0.00
2013-6-1,85.3,80.9,76.5,78.4,76.2,74.2,93,86,75,30.03,29.93,16,5,29,0.00
2013-6-2,83.5,78.9,73.4,77.5,74.4,71.9,96,86,79,30.02,29.93,14,4,25,0.33
2013-6-3,81.0,78.2,73.0,77.1,75.0,70.8,96,90,83,30.04,29.91,14,5,29,1.09
2013-6-4,82.0,79.1,73.2,78.0,75.9,71.4,96,90,82,30.02,29.95,14,8,22,0.07
2013-6-5,83.1,81.5,77.7,79.6,77.5,73.6,91,87,84,29.99,29.85,14,10,25,0.07
2013-6-6,85.6,81.2,75.0,80.5,77.7,71.8,95,89,83,29.89,29.79,21,8,31,0.54
2013-6-7,86.7,81.0,76.5,80.7,77.1,73.9,94,88,75,30.01,29.87,13,6,19,0.28
2013-6-8,85.8,82.8,79.3,79.5,78.1,76.1,91,86,80,30.09,29.97,12,7,19,0.02
2013-6-9,84.9,83.0,79.7,78.7,76.4,73.4,86,81,73,30.09,30.00,14,11,22,0.00
2013-6-10,85.3,83.4,81.3,78.6,77.1,75.8,87,81,75,30.07,29.98,13,9,21,0.00
2013-6-11,88.3,84.1,81.3,79.5,77.3,74.4,90,80,65,30.07,30.00,10,5,15,0.00
2013-6-12,86.9,82.0,74.8,78.9,76.2,71.5,94,83,73,30.08,30.00,13,4,22,1.23
2013-6-13,85.6,82.1,78.1,76.6,75.0,73.2,88,79,70,30.06,29.96,8,4,14,0.00
2013-6-14,88.0,82.4,77.5,77.8,74.8,72.3,89,78,69,30.00,29.92,12,3,22,0.80
2013-6-15,88.0,83.6,79.9,77.4,75.5,72.7,86,77,63,30.06,29.95,6,3,11,0.00
2013-6-16,87.1,84.2,81.5,78.2,75.9,74.2,83,76,67,30.08,30.00,11,7,21,0.00
2013-6-17,86.9,84.3,82.6,79.0,77.7,76.6,85,81,74,30.07,30.00,12,9,20,0.00
2013-6-18,86.9,84.4,82.4,79.9,78.1,74.6,88,81,73,30.06,29.99,10,7,18,0.00
2013-6-19,87.6,84.8,81.7,78.6,77.5,75.9,85,79,71,30.05,29.98,9,6,15,0.00
2013-6-20,87.4,85.0,83.1,78.2,76.4,74.7,83,76,69,30.09,30.01,12,8,18,0.00
2013-6-21,87.3,84.8,82.8,77.6,74.5,72.5,82,71,62,30.11,30.02,12,8,20,0.00
2013-6-22,87.4,84.4,82.2,77.6,74.8,72.7,82,73,63,30.09,30.02,12,8,17,0.00
2013-6-23,86.2,83.8,82.6,77.8,75.8,74.0,82,77,68,30.11,30.02,12,9,19,0.00
2013-6-24,86.4,83.9,81.5,77.3,75.2,73.2,82,75,68,30.15,30.05,13,9,21,0.00
2013-6-25,87.3,83.9,81.0,78.2,76.7,74.2,85,79,70,30.10,30.01,12,9,20,0.00
2013-6-26,86.2,83.5,79.0,78.4,76.4,72.9,88,79,71,30.07,29.99,14,7,20,0.14
2013-6-27,87.4,83.7,80.2,78.4,76.4,71.0,87,79,70,30.04,29.97,8,5,19,0.24
2013-6-28,88.0,84.3,81.7,77.1,75.7,72.1,81,75,64,30.00,29.89,7,4,14,0.00
2013-6-29,87.1,84.2,79.3,78.9,76.5,74.9,90,78,70,29.94,29.86,10,5,17,0.31
2013-6-30,86.4,82.8,77.0,77.3,75.8,73.3,92,80,68,29.96,29.86,17,9,31,0.09
2013-7-1,84.2,81.4,75.6,77.7,74.8,70.9,94,80,73,30.02,29.90,19,7,36,0.28
2013-7-2,87.3,81.1,74.3,79.3,76.6,72.7,97,86,74,30.09,29.96,10,4,25,5.10
2013-7-3,85.3,81.3,76.5,78.6,75.7,67.3,96,83,64,30.09,30.02,14,8,25,0.07
2013-7-4,86.2,83.6,79.9,78.2,76.7,73.6,87,80,72,30.11,30.03,14,11,27,0.00
2013-7-5,84.4,79.5,74.3,78.4,75.4,71.2,94,87,77,30.10,30.02,17,7,29,1.82
2013-7-6,85.3,82.9,80.2,78.7,76.8,73.5,90,82,74,30.08,29.99,14,10,24,0.02
2013-7-7,85.8,83.0,78.8,77.5,75.7,71.0,86,79,71,30.07,30.00,22,10,32,0.00
2013-7-8,85.3,82.6,76.6,76.6,74.0,70.5,92,76,64,30.12,30.04,15,9,27,0.24
2013-7-9,85.1,81.5,79.7,76.6,74.1,70.1,88,78,66,30.14,30.05,10,4,15,0.07
2013-7-10,86.5,81.7,77.9,76.2,74.3,69.6,89,78,69,30.08,29.99,7,3,13,0.02
2013-7-11,88.7,84.1,81.1,77.3,75.6,73.7,82,76,66,30.04,29.94,6,3,10,0.00
2013-7-12,87.6,83.5,80.6,77.5,75.0,71.9,83,76,68,29.99,29.91,8,4,14,0.00
2013-7-13,86.4,81.8,75.2,78.5,75.4,72.1,93,81,69,30.02,29.92,19,7,30,0.94
2013-7-14,84.4,81.8,78.1,78.4,75.6,72.3,91,82,76,30.07,29.95,16,8,27,0.00
2013-7-15,83.7,80.9,77.9,75.4,73.7,69.4,88,79,66,30.07,29.99,14,9,22,0.00
2013-7-16,82.6,79.7,73.8,77.3,74.3,72.0,96,84,72,30.10,30.00,18,9,32,2.95
2013-7-17,81.1,77.9,73.9,75.6,74.2,72.4,96,88,76,30.12,30.01,11,6,19,0.69
2013-7-18,82.4,78.4,75.2,78.0,75.0,72.3,94,89,81,30.12,30.03,13,6,23,0.52
2013-7-19,86.2,82.8,78.1,79.4,77.9,75.6,94,85,77,30.11,30.02,12,8,19,0.00
2013-7-20,86.9,83.8,81.5,79.6,78.2,76.1,90,83,74,30.10,30.01,10,6,17,0.00
2013-7-21,86.9,84.2,82.0,80.0,78.0,76.0,89,82,75,30.15,30.05,10,6,15,0.00
2013-7-22,86.4,83.9,81.7,77.8,76.1,74.5,83,77,70,30.15,30.07,10,7,17,0.00
2013-7-23,87.4,84.3,82.0,77.5,75.8,73.3,84,76,66,30.12,30.01,12,5,16,0.00
2013-7-24,90.0,84.6,80.8,76.9,75.0,72.5,84,73,62,30.04,29.96,6,3,11,0.00
2013-7-25,87.4,84.3,81.5,76.9,74.9,72.2,82,74,62,30.07,29.95,10,5,16,0.00
2013-7-26,90.3,85.1,81.5,78.4,75.6,72.9,84,74,59,30.07,30.00,10,6,17,0.00
2013-7-27,90.0,85.7,82.4,78.4,76.7,74.3,84,75,64,30.03,29.96,9,5,13,0.00
2013-7-28,89.8,85.3,81.3,78.1,74.6,69.0,84,71,52,30.07,29.95,6,3,10,0.00
2013-7-29,88.9,85.7,83.7,78.7,76.8,74.4,83,75,65,30.11,30.00,10,6,18,0.00
2013-7-30,86.7,84.4,82.6,79.8,77.9,75.7,86,81,73,30.14,30.05,12,7,19,0.12
2013-7-31,87.6,85.3,83.3,78.7,76.9,74.4,85,76,68,30.09,29.97,14,10,23,0.00
2013-8-1,88.0,85.2,83.3,77.8,75.8,73.5,83,74,63,30.03,29.93,12,7,20,0.00
2013-8-2,89.4,84.7,79.9,79.6,76.2,69.7,89,76,64,30.07,29.93,8,3,14,0.07
2013-8-3,90.0,85.8,82.8,78.5,76.8,74.9,83,75,64,30.12,30.03,7,4,14,0.00
2013-8-4,91.4,85.8,82.9,78.5,76.4,72.6,82,74,61,30.11,30.02,4,2,8,0.00
2013-8-5,88.9,85.0,81.3,78.5,75.7,68.9,83,74,52,30.07,29.98,9,4,13,0.00
2013-8-6,88.2,83.7,78.8,79.8,77.6,74.7,90,82,70,30.01,29.91,14,4,21,0.05
2013-8-7,87.6,84.5,82.2,78.7,77.0,73.9,86,78,70,29.96,29.89,11,5,19,0.00
2013-8-8,87.3,84.3,78.1,78.5,76.5,73.7,92,78,69,29.98,29.89,15,10,27,0.66
2013-8-9,87.1,83.5,78.8,77.1,74.7,69.1,83,75,62,30.02,29.91,22,9,34,0.00
2013-8-10,86.9,84.5,81.0,79.0,77.3,75.2,88,79,72,30.09,29.98,16,12,25,0.12
2013-8-11,87.4,85.3,83.7,79.0,77.8,76.4,83,78,72,30.11,30.02,16,12,24,0.00
2013-8-12,87.3,84.5,80.6,78.0,76.2,74.0,88,76,67,30.08,29.99,13,9,21,0.00
2013-8-13,87.6,85.1,83.1,78.1,76.7,75.4,82,76,69,30.03,29.95,11,8,17,0.00
2013-8-14,87.8,84.8,82.8,78.6,76.4,73.8,84,76,69,30.02,29.92,10,7,17,0.00
2013-8-15,86.7,82.9,75.6,79.1,76.9,72.1,93,82,72,30.02,29.96,19,6,28,0.59
2013-8-16,86.7,86.0,82.9,80.5,78.1,76.9,86,77,75,29.99,29.93,12,8,19,0.59
2013-8-17,87.6,85.4,82.9,79.6,77.8,76.0,86,78,72,30.01,29.93,13,9,21,0.02
2013-8-18,87.4,84.9,81.7,80.0,78.0,75.2,90,80,72,30.01,29.91,15,10,24,0.02
2013-8-19,87.4,84.4,79.9,79.8,77.4,72.8,87,79,71,30.00,29.90,14,9,23,0.14
2013-8-20,86.2,83.4,80.1,79.2,77.1,71.6,90,81,69,29.99,29.91,13,8,23,0.40
2013-8-21,87.3,84.2,78.8,79.9,77.7,73.7,90,81,71,30.00,29.90,16,9,29,0.14
2013-8-22,87.1,84.1,77.2,80.1,78.3,72.0,92,83,75,29.99,29.88,17,11,34,0.45
2013-8-23,87.6,85.0,82.9,79.4,77.6,76.2,84,78,69,29.97,29.87,10,8,17,0.00
2013-8-24,87.8,84.9,80.6,78.6,77.0,74.1,87,77,70,30.03,29.92,10,6,22,0.09
2013-8-25,88.5,85.2,82.2,78.5,77.1,75.0,83,77,67,30.08,29.97,10,6,17,0.00
2013-8-26,84.2,81.2,74.8,78.6,75.1,71.7,94,82,70,30.07,29.94,14,6,23,0.90
2013-8-27,82.0,80.3,77.7,75.3,73.3,68.7,85,79,67,30.00,29.91,15,5,24,0.00
2013-8-28,86.5,79.3,73.0,76.6,73.7,71.1,96,84,68,29.99,29.89,10,4,15,0.14
2013-8-29,88.3,83.2,77.9,77.7,74.7,72.7,90,76,61,30.02,29.92,5,2,9,0.00
2013-8-30,89.4,83.7,80.4,77.8,75.8,74.1,84,77,67,30.01,29.91,5,2,10,0.00
2013-8-31,88.2,84.2,81.3,78.8,75.8,72.5,83,76,68,29.97,29.89,10,4,15,0.00
2013-9-1,88.9,85.1,82.4,78.4,77.1,75.6,86,77,66,29.99,29.91,7,4,14,0.00
2013-9-2,90.5,85.2,82.2,79.4,77.5,73.7,87,78,62,30.03,29.92,8,4,13,0.00
2013-9-3,88.7,83.3,75.7,78.7,76.7,71.7,94,81,66,30.00,29.90,10,4,19,3.09
2013-9-4,88.0,84.8,82.0,79.6,78.0,76.0,88,80,70,30.02,29.91,10,7,17,0.07
2013-9-5,87.6,85.4,82.9,79.1,77.5,75.4,85,77,70,30.03,29.95,12,9,20,0.00
2013-9-6,88.2,85.4,82.6,78.8,77.3,74.1,85,77,67,30.01,29.90,11,8,18,0.00
2013-9-7,85.6,82.6,79.2,78.3,75.2,71.1,90,79,65,29.99,29.86,12,6,21,0.17
2013-9-8,87.1,82.2,75.7,78.4,75.1,70.2,91,80,58,29.94,29.83,11,4,20,0.19
2013-9-9,86.9,83.5,80.1,78.5,76.1,73.0,85,78,69,29.96,29.86,12,6,22,0.02
2013-9-10,87.3,83.4,78.6,78.6,76.3,72.5,91,79,68,30.00,29.91,14,8,26,0.09
2013-9-11,86.4,82.9,79.0,79.8,76.5,73.9,88,81,70,30.00,29.92,12,7,26,0.35
2013-9-12,86.0,82.8,79.9,78.7,76.8,74.5,90,82,73,29.98,29.87,9,5,14,0.00
2013-9-13,86.9,83.9,81.3,77.9,75.9,74.5,85,77,67,29.89,29.80,8,4,12,0.00
2013-9-14,86.9,84.2,81.3,78.0,76.0,73.1,86,77,65,29.94,29.81,12,6,24,0.02
2013-9-15,86.5,80.9,72.0,80.1,76.9,69.9,94,88,78,30.01,29.88,19,6,42,1.81
2013-9-16,82.9,80.6,76.3,78.6,76.1,72.1,94,86,78,30.03,29.90,20,8,30,0.02
2013-9-17,82.4,79.8,73.6,77.6,76.0,71.5,95,88,79,30.01,29.89,15,6,30,0.89
2013-9-18,84.0,81.4,78.3,80.7,77.9,75.1,95,89,84,29.98,29.88,9,3,14,0.50
2013-9-19,86.9,82.5,75.7,78.7,75.7,72.8,94,80,65,29.98,29.92,9,4,17,0.32
2013-9-20,85.6,81.8,78.4,77.5,74.6,68.8,93,79,63,29.98,29.87,11,7,18,0.00
2013-9-21,88.0,82.4,79.2,79.5,75.0,71.2,89,79,66,29.88,29.76,9,3,14,0.04
2013-9-22,88.9,84.0,79.9,78.7,76.3,72.8,89,78,69,29.87,29.76,10,4,18,0.00
2013-9-23,88.0,83.9,77.0,80.6,78.6,74.6,94,84,76,29.96,29.84,17,5,33,1.19
2013-9-24,89.1,85.2,82.6,80.9,79.2,77.0,92,82,72,29.97,29.88,8,4,14,0.00
2013-9-25,89.4,85.7,83.1,81.1,78.8,75.7,90,80,65,29.91,29.83,10,5,17,0.00
2013-9-26,88.0,85.1,83.3,79.6,78.3,76.4,87,80,69,29.90,29.82,15,9,23,0.00
2013-9-27,86.9,84.0,80.2,79.5,75.8,70.9,90,77,60,29.91,29.82,12,7,22,0.28
2013-9-28,87.1,82.8,79.2,78.7,74.8,71.8,88,77,67,29.94,29.84,8,3,16,0.02
2013-9-29,86.2,82.4,75.0,76.4,73.9,67.7,88,76,65,29.94,29.85,9,5,19,0.16
2013-9-30,87.1,83.7,79.2,77.5,75.0,72.3,85,75,64,29.97,29.87,12,7,28,0.25
2013-10-1,86.7,83.6,77.5,78.7,76.8,74.1,94,80,71,30.00,29.90,13,9,24,1.06
2013-10-2,86.2,82.2,77.4,79.3,77.0,75.5,95,84,72,30.00,29.91,11,6,19,0.16
2013-10-3,87.1,83.9,81.5,78.9,77.3,75.6,86,81,72,30.01,29.90,11,8,17,0.00
2013-10-4,86.2,83.6,81.7,77.8,76.5,75.3,84,79,72,30.02,29.94,11,8,16,0.00
2013-10-5,85.5,82.5,80.2,75.7,74.2,72.3,83,76,71,30.00,29.90,10,6,15,0.00
2013-10-6,89.6,82.9,80.2,76.0,73.3,70.2,84,73,60,29.96,29.86,8,3,16,0.12
2013-10-7,88.0,84.0,81.0,78.6,76.3,73.5,84,78,69,29.92,29.83,13,6,21,0.00
2013-10-8,87.4,83.1,79.7,79.2,76.8,74.3,88,81,73,29.94,29.84,10,5,15,0.35
2013-10-9,86.2,81.7,79.3,75.4,73.0,65.1,86,75,54,29.98,29.90,6,3,11,0.00
2013-10-10,86.0,81.6,78.6,76.9,75.0,72.0,91,81,64,30.00,29.92,9,4,15,0.00
2013-10-11,85.1,81.6,76.6,76.2,73.1,70.2,92,76,62,29.99,29.91,12,7,18,0.05
2013-10-12,84.6,81.7,79.3,72.0,68.9,64.9,75,66,53,30.01,29.93,12,6,17,0.00
2013-10-13,84.0,81.4,79.0,71.0,69.9,66.9,74,68,57,30.03,29.94,11,7,19,0.00
2013-10-14,83.8,80.8,78.4,72.1,69.2,66.0,79,68,56,29.99,29.89,9,6,17,0.00
2013-10-15,84.2,80.2,77.4,74.1,71.1,68.9,86,74,65,29.94,29.85,8,4,16,0.04
2013-10-16,85.6,80.9,77.2,74.8,71.7,65.6,90,75,52,29.94,29.87,6,3,12,0.02
2013-10-17,84.9,82.9,81.0,76.9,74.3,72.7,82,75,68,30.04,29.89,8,5,12,0.00
2013-10-18,85.3,82.0,79.0,77.7,75.6,73.4,90,81,74,29.97,29.89,11,7,23,0.34
2013-10-19,86.7,82.8,79.3,78.6,76.2,74.8,91,81,71,29.96,29.88,9,4,15,0.02
2013-10-20,88.9,83.5,79.5,78.8,76.7,73.8,89,80,69,29.97,29.88,9,4,14,0.02
2013-10-21,88.2,83.9,81.3,78.5,76.8,74.7,88,79,70,30.01,29.92,6,3,13,0.00
2013-10-22,88.3,83.9,81.7,78.7,76.9,74.9,85,79,71,29.97,29.86,8,4,14,0.00
2013-10-23,86.5,83.1,79.7,78.2,76.3,74.7,88,80,69,29.96,29.84,9,5,14,0.05
2013-10-24,82.8,78.9,76.8,75.1,72.0,69.1,92,80,71,30.07,29.92,13,8,24,0.09
2013-10-25,81.0,78.4,76.3,70.2,68.1,64.1,78,71,60,30.14,30.04,15,10,26,0.00
2013-10-26,81.0,77.7,75.2,69.5,68.3,66.4,81,73,62,30.13,30.04,13,10,24,0.00
2013-10-27,80.6,77.7,75.0,69.7,67.5,65.5,79,71,63,30.09,30.00,12,8,22,0.00
2013-10-28,81.9,78.3,75.4,72.0,70.2,66.7,88,76,60,30.12,30.02,12,8,23,0.00
2013-10-29,81.7,78.6,75.6,72.5,70.5,67.1,85,76,62,30.16,30.07,14,9,26,0.00
2013-10-30,81.9,79.2,76.3,72.7,70.2,68.0,85,74,64,30.15,30.05,14,9,24,0.00
2013-10-31,83.1,80.6,78.3,73.6,72.2,70.2,81,76,69,30.10,29.98,12,9,20,0.00
2013-11-1,86.9,81.7,78.8,73.9,72.5,70.0,83,74,61,30.01,29.90,8,3,12,0.00
2013-11-2,86.4,81.1,78.1,74.7,72.9,71.4,84,76,64,29.95,29.85,10,4,14,0.00
2013-11-3,80.1,76.6,72.9,72.9,66.0,61.4,84,70,61,30.00,29.89,12,9,23,0.00
2013-11-4,80.8,76.4,72.7,72.6,67.8,60.5,95,76,50,30.06,29.96,17,10,27,0.20
2013-11-5,79.2,77.3,74.5,75.0,72.5,70.3,94,85,80,30.02,29.95,19,13,30,0.00
2013-11-6,81.9,78.9,75.2,75.6,74.1,72.8,93,85,79,30.02,29.95,13,10,25,0.03
2013-11-7,82.9,78.5,75.4,74.0,72.2,65.2,92,81,59,30.02,29.93,8,5,14,0.00
2013-11-8,82.4,78.1,74.8,74.9,71.8,66.8,92,81,74,30.02,29.93,12,8,21,0.00
2013-11-9,83.3,79.0,75.7,75.9,74.5,73.2,93,86,75,30.07,29.98,15,9,24,0.00
2013-11-10,81.5,78.3,75.7,76.8,75.1,72.7,96,90,81,30.09,30.01,18,8,30,0.00
2013-11-11,80.8,78.4,76.6,75.4,73.9,72.7,89,86,82,30.08,30.00,14,9,23,0.00
2013-11-12,83.1,79.0,75.9,75.1,74.0,72.2,94,85,74,30.07,29.96,9,5,17,0.00
2013-11-13,77.5,75.0,72.3,74.5,68.3,65.2,93,80,68,30.14,29.98,19,11,33,0.00
2013-11-14,76.6,74.8,73.0,69.4,66.6,64.5,81,76,71,30.16,30.07,21,15,35,0.00
2013-11-15,80.1,76.5,73.9,75.4,71.7,68.2,98,85,76,30.09,29.97,15,11,27,0.34
2013-11-16,81.7,78.8,76.1,75.0,73.6,71.3,93,84,74,30.06,29.96,15,11,25,0.02
2013-11-17,82.2,79.6,76.6,74.5,73.1,71.7,92,81,72,30.06,29.98,12,8,18,0.00
2013-11-18,82.8,78.8,76.1,75.6,73.7,71.3,95,85,69,30.02,29.92,7,4,12,0.00
2013-11-19,84.6,78.0,74.7,74.5,72.4,69.1,95,83,66,29.96,29.87,4,2,8,0.00
2013-11-20,82.4,78.4,74.5,75.8,72.6,70.7,96,83,68,30.05,29.92,7,4,11,0.00
2013-11-21,82.2,79.7,77.7,74.3,71.9,69.5,89,77,68,30.11,30.02,10,7,17,0.00
2013-11-22,79.7,77.0,74.8,75.5,74.1,72.1,96,91,80,30.11,30.03,11,6,19,0.29
2013-11-23,81.5,78.2,75.7,75.5,73.5,70.0,95,86,71,30.05,29.96,12,7,18,0.02
2013-11-24,81.9,77.9,74.7,74.5,71.4,66.2,94,81,60,30.10,29.97,15,7,26,0.00
2013-11-25,77.7,75.4,72.5,73.9,70.6,68.1,97,85,77,30.12,30.00,21,16,36,0.20
2013-11-26,82.2,79.7,74.7,76.6,74.0,70.7,91,83,78,30.01,29.84,17,8,33,0.12
2013-11-27,78.1,73.8,69.1,73.7,66.3,59.0,97,78,58,30.11,29.83,17,9,28,1.18
2013-11-28,70.9,65.1,58.5,62.5,57.9,50.9,86,78,69,30.23,30.10,13,8,24,0.00
2013-11-29,76.1,71.1,66.9,65.6,63.5,61.4,86,77,68,30.22,30.14,13,9,24,0.00
2013-11-30,77.0,71.8,67.5,69.6,66.5,63.2,92,83,75,30.19,30.09,10,7,21,0.00
2013-12-1,78.1,72.4,69.1,69.7,67.4,65.8,93,85,70,30.11,29.97,9,5,16,0.00
2013-12-2,74.8,71.0,67.1,69.6,65.3,61.6,96,83,66,29.98,29.85,11,4,17,0.00
2013-12-3,79.5,74.7,68.4,69.7,66.8,64.4,91,77,63,30.01,29.91,6,4,12,0.00
2013-12-4,80.8,77.5,74.5,72.2,70.4,67.6,92,79,70,30.08,29.97,7,5,13,0.00
2013-12-5,80.8,77.8,73.8,72.9,70.6,68.8,92,79,69,30.15,30.04,11,7,17,0.00
2013-12-6,81.1,79.0,77.5,73.8,71.6,68.4,84,78,73,30.16,30.05,12,9,20,0.00
2013-12-7,80.6,77.4,74.1,74.4,71.3,67.6,93,82,71,30.20,30.11,12,7,19,0.15
2013-12-8,80.6,78.2,73.9,73.8,71.6,69.2,94,80,69,30.18,30.09,14,10,22,0.02
2013-12-9,81.0,78.7,76.3,73.7,71.6,67.3,89,79,64,30.17,30.08,14,9,23,0.00
2013-12-10,82.6,79.1,77.2,75.1,73.6,71.8,92,83,75,30.14,30.07,9,6,14,0.00
2013-12-11,79.5,77.4,74.8,76.2,74.3,71.6,96,90,80,30.18,30.09,16,7,24,0.26
2013-12-12,80.2,75.7,70.3,75.5,71.6,63.4,97,87,77,30.21,30.11,12,6,24,0.32
2013-12-13,79.0,75.2,70.9,73.0,69.2,64.6,90,81,74,30.15,30.04,16,11,27,0.00
2013-12-14,81.0,78.8,76.1,75.3,73.2,71.5,90,83,76,30.07,29.97,11,8,21,0.00
2013-12-15,84.4,78.9,73.9,78.0,74.9,71.8,93,88,77,30.07,29.96,10,5,18,0.00
2013-12-16,73.9,71.9,69.6,71.8,66.8,64.1,93,84,73,30.16,30.04,12,7,21,0.00
2013-12-17,76.5,71.9,68.4,69.5,66.9,63.2,92,84,76,30.18,30.08,8,6,15,0.00
2013-12-18,74.7,71.8,69.1,66.4,61.8,57.7,82,71,57,30.22,30.12,11,8,22,0.00
2013-12-19,76.8,72.1,68.4,69.8,65.5,62.5,90,80,64,30.21,30.11,13,8,21,0.00
2013-12-20,82.9,77.2,72.9,76.9,72.5,69.8,93,85,80,30.12,29.86,15,10,55,15.85
2013-12-21,80.6,78.6,77.2,73.9,72.9,71.8,86,83,79,30.05,29.85,13,10,22,0.00
2013-12-22,81.0,78.9,77.7,75.1,73.6,71.8,90,84,78,30.11,30.02,12,9,23,0.00
2013-12-23,81.5,78.9,77.4,75.7,74.4,72.4,91,86,79,30.15,30.07,10,7,19,0.00
2013-12-24,83.5,75.3,68.7,75.7,71.0,64.6,95,87,70,30.15,30.04,12,5,22,0.00
2013-12-25,77.4,72.5,68.9,71.0,68.7,64.9,92,88,79,30.11,30.03,15,8,26,0.03
2013-12-26,77.5,74.6,71.8,72.7,71.3,69.9,95,90,83,30.12,30.02,9,6,17,0.00
2013-12-27,79.0,75.8,73.4,74.8,73.0,71.6,95,91,85,30.14,30.04,12,7,18,0.00
2013-12-28,80.2,78.2,75.2,74.8,73.3,71.8,95,85,80,30.11,29.99,15,10,25,0.00
2013-12-29,79.2,77.5,74.7,75.5,74.4,72.5,95,90,85,30.04,29.93,9,5,19,0.00
2013-12-30,76.8,74.5,73.4,74.3,72.1,69.5,98,92,81,30.10,29.97,9,4,16,0.06
2013-12-31,78.1,74.1,70.9,72.4,70.6,68.1,94,89,81,30.17,30.07,14,9,25,0.00
2014-1-1,81.7,78.1,73.8,74.8,73.2,70.4,94,85,78,30.13,30.01,14,9,21,0.00
2014-1-2,82.4,78.9,75.7,73.6,71.9,70.2,92,79,70,30.02,29.90,10,6,21,0.00